Time;durP1;ratioP1;P1;durP2;ratioP2;P2;SDS_P1;SDS_P2;PMS_P1;PMS_P2;Temp;Humidity;BMP_temperature;BMP_pressure;BME280_temperature;BME280_humidity;BME280_pressure;Samples;Min_cycle;Max_cycle;Signal;HPM_P1;HPM_P2
2022/10/23 00:00:39;;;;;;;;;;;9.00;99.90;;;;;;5010516;28;20484;-89
2022/10/23 00:03:24;;;;;;;;;;;8.70;99.90;;;;;;5014083;28;20594;-87
2022/10/23 00:06:40;;;;;;;;;;;8.70;99.90;;;;;;4999231;28;19925;-87
2022/10/23 00:09:06;;;;;;;;;;;8.60;99.90;;;;;;5029891;28;19914;-87
2022/10/23 00:15:07;;;;;;;;;;;8.60;99.90;;;;;;5022182;28;19963;-86
2022/10/23 00:17:38;;;;;;;;;;;8.40;99.90;;;;;;5011727;28;19921;-85
2022/10/23 00:20:16;;;;;;;;;;;8.50;99.90;;;;;;5004516;28;19924;-87
2022/10/23 00:22:50;;;;;;;;;;;8.20;99.90;;;;;;5014988;28;20004;-87
2022/10/23 00:25:24;;;;;;;;;;;8.30;99.90;;;;;;5028405;28;19914;-88
2022/10/23 00:28:13;;;;;;;;;;;8.10;99.90;;;;;;5032706;28;19921;-88
2022/10/23 00:30:38;;;;;;;;;;;8.30;99.90;;;;;;5014105;28;19913;-87
2022/10/23 00:33:14;;;;;;;;;;;8.20;99.90;;;;;;5032523;28;19913;-86
2022/10/23 00:35:46;;;;;;;;;;;8.20;99.90;;;;;;5013893;28;19918;-87
2022/10/23 00:38:20;;;;;;;;;;;8.10;99.90;;;;;;5015093;28;20012;-87
2022/10/23 00:41:00;;;;;;;;;;;8.00;99.90;;;;;;5013842;28;19909;-87
2022/10/23 00:43:27;;;;;;;;;;;8.20;99.90;;;;;;5031669;28;19960;-88
2022/10/23 00:45:56;;;;;;;;;;;8.30;99.90;;;;;;5031249;28;19921;-87
2022/10/23 00:48:24;;;;;;;;;;;8.40;99.90;;;;;;5015127;28;19994;-88
2022/10/23 00:50:53;;;;;;;;;;;8.40;99.90;;;;;;5015182;28;19917;-88
2022/10/23 00:53:24;;;;;;;;;;;8.40;99.90;;;;;;5012941;28;19909;-87
2022/10/23 00:55:52;;;;;;;;;;;8.40;99.90;;;;;;5034505;28;19909;-86
2022/10/23 00:58:21;;;;;;;;;;;8.50;99.90;;;;;;5020557;28;19910;-88
2022/10/23 01:00:52;;;;;;;;;;;8.40;99.90;;;;;;5031307;28;19966;-87
2022/10/23 01:03:24;;;;;;;;;;;8.10;99.90;;;;;;5018193;28;20368;-88
2022/10/23 01:06:01;;;;;;;;;;;8.10;99.90;;;;;;5033700;28;20006;-88
2022/10/23 01:08:58;;;;;;;;;;;8.10;99.90;;;;;;5032751;28;19913;-87
2022/10/23 01:11:38;;;;;;;;;;;8.10;99.90;;;;;;4950689;28;19913;-86
2022/10/23 01:14:35;;;;;;;;;;;8.10;99.90;;;;;;5036049;28;19913;-88
2022/10/23 01:17:22;;;;;;;;;;;8.20;99.90;;;;;;5001727;28;19920;-87
2022/10/23 01:20:05;;;;;;;;;;;8.30;99.90;;;;;;5012248;28;20467;-87
2022/10/23 01:23:12;;;;;;;;;;;8.30;99.90;;;;;;5017748;28;19924;-87
2022/10/23 01:25:40;;;;;;;;;;;8.30;99.90;;;;;;5022731;28;20766;-87
2022/10/23 01:28:23;;;;;;;;;;;8.40;99.90;;;;;;5036133;28;19924;-86
2022/10/23 01:30:48;;;;;;;;;;;8.40;99.90;;;;;;5035051;28;19913;-88
2022/10/23 01:33:19;;;;;;;;;;;8.40;99.90;;;;;;5035759;28;19924;-87
2022/10/23 01:35:45;;;;;;;;;;;8.30;99.90;;;;;;5017933;28;20000;-88
2022/10/23 01:38:26;;;;;;;;;;;8.20;99.90;;;;;;5014493;28;19995;-87
2022/10/23 01:41:31;;;;;;;;;;;8.20;99.90;;;;;;5029690;28;19913;-86
2022/10/23 01:44:16;;;;;;;;;;;8.20;99.90;;;;;;5012915;28;19949;-89
2022/10/23 01:47:05;;;;;;;;;;;8.10;99.90;;;;;;5013578;28;19917;-88
2022/10/23 01:49:43;;;;;;;;;;;8.00;99.90;;;;;;4996680;28;19929;-87
2022/10/23 01:52:10;;;;;;;;;;;8.00;99.90;;;;;;5002427;28;19910;-87
2022/10/23 01:54:38;;;;;;;;;;;8.00;99.90;;;;;;5013526;28;19909;-88
2022/10/23 01:57:09;;;;;;;;;;;8.00;99.90;;;;;;4997675;28;19964;-88
2022/10/23 01:59:40;;;;;;;;;;;8.10;99.90;;;;;;5009769;28;19917;-86
2022/10/23 02:02:29;;;;;;;;;;;8.00;99.90;;;;;;4997779;28;19914;-88
2022/10/23 02:08:26;;;;;;;;;;;;;;;;;;;;;
2022/10/23 02:11:07;;;;;;;;;;;7.90;99.90;;;;;;5034493;28;19913;-87
2022/10/23 02:13:40;;;;;;;;;;;7.90;99.90;;;;;;5017346;28;19909;-88
2022/10/23 02:16:19;;;;;;;;;;;7.90;99.90;;;;;;5022906;28;20616;-87
2022/10/23 02:19:03;;;;;;;;;;;7.90;99.90;;;;;;5033555;28;19913;-87
2022/10/23 02:22:05;;;;;;;;;;;;;;;;;;;;;
2022/10/23 02:24:40;;;;;;;;;;;8.00;99.90;;;;;;5034699;28;19913;-87
2022/10/23 02:27:15;;;;;;;;;;;7.90;99.90;;;;;;5007915;28;20395;-87
2022/10/23 02:29:58;;;;;;;;;;;7.90;99.90;;;;;;5022631;28;19992;-87
2022/10/23 02:32:49;;;;;;;;;;;7.80;99.90;;;;;;5013360;28;19924;-88
2022/10/23 02:35:23;;;;;;;;;;;7.70;99.90;;;;;;5013258;28;19959;-87
2022/10/23 02:37:56;;;;;;;;;;;7.90;99.90;;;;;;5016160;28;20001;-88
2022/10/23 02:40:24;;;;;;;;;;;8.00;99.90;;;;;;5016600;28;19913;-87
2022/10/23 02:42:58;;;;;;;;;;;8.00;99.90;;;;;;5032966;28;19913;-87
2022/10/23 02:45:34;;;;;;;;;;;8.10;99.90;;;;;;5005610;28;20281;-88
2022/10/23 02:48:02;;;;;;;;;;;8.20;99.90;;;;;;4997002;28;20445;-88
2022/10/23 02:50:52;;;;;;;;;;;8.30;99.90;;;;;;5028579;28;19963;-86
2022/10/23 02:53:55;;;;;;;;;;;;;;;;;;;;;
2022/10/23 02:56:39;;;;;;;;;;;8.20;99.90;;;;;;5035106;28;19913;-87
2022/10/23 02:59:13;;;;;;;;;;;8.30;99.90;;;;;;5023848;28;19917;-88
2022/10/23 03:02:08;;;;;;;;;;;8.30;99.90;;;;;;5016372;28;20648;-88
2022/10/23 03:04:38;;;;;;;;;;;8.40;99.90;;;;;;5013880;28;19920;-85
2022/10/23 03:07:04;;;;;;;;;;;8.50;99.90;;;;;;5009050;28;19921;-85
2022/10/23 03:09:38;;;;;;;;;;;8.40;99.90;;;;;;5032534;28;20005;-86
2022/10/23 03:12:03;;;;;;;;;;;8.30;99.90;;;;;;5007898;28;19914;-87
2022/10/23 03:14:29;;;;;;;;;;;8.40;99.90;;;;;;5015995;28;19917;-88
2022/10/23 03:16:57;;;;;;;;;;;8.40;99.90;;;;;;5008102;28;19917;-87
2022/10/23 03:19:38;;;;;;;;;;;8.40;99.90;;;;;;5015913;28;19913;-86
2022/10/23 03:22:06;;;;;;;;;;;8.30;99.90;;;;;;5026384;28;19963;-86
2022/10/23 03:24:40;;;;;;;;;;;8.40;99.90;;;;;;5032186;28;19963;-86
2022/10/23 03:27:06;;;;;;;;;;;8.40;99.90;;;;;;5001344;28;19921;-87
2022/10/23 03:29:32;;;;;;;;;;;8.50;99.90;;;;;;5033661;28;19913;-86
2022/10/23 03:32:00;;;;;;;;;;;8.50;99.90;;;;;;5010614;28;19924;-86
2022/10/23 03:34:26;;;;;;;;;;;8.60;99.90;;;;;;5011679;28;19913;-87
2022/10/23 03:36:54;;;;;;;;;;;8.40;99.90;;;;;;5033070;28;19913;-87
2022/10/23 03:39:56;;;;;;;;;;;8.40;99.90;;;;;;5015696;28;19964;-87
2022/10/23 03:42:25;;;;;;;;;;;8.50;99.90;;;;;;5023622;28;19913;-86
2022/10/23 03:51:04;;;;;;;;;;;8.40;99.90;;;;;;5004980;28;19921;-87
2022/10/23 03:53:43;;;;;;;;;;;;;;;;;;;;;
2022/10/23 03:56:11;;;;;;;;;;;8.20;99.90;;;;;;5026120;28;20373;-87
2022/10/23 03:58:37;;;;;;;;;;;8.10;99.90;;;;;;5023202;28;19914;-88
2022/10/23 04:01:06;;;;;;;;;;;8.20;99.90;;;;;;5026702;28;19979;-87
2022/10/23 04:03:42;;;;;;;;;;;8.20;99.90;;;;;;5016782;28;20400;-89
2022/10/23 04:06:11;;;;;;;;;;;8.10;99.90;;;;;;5031958;28;19963;-87
2022/10/23 04:08:37;;;;;;;;;;;7.90;99.90;;;;;;5033054;28;19909;-87
2022/10/23 04:11:05;;;;;;;;;;;7.80;99.90;;;;;;5027751;28;19920;-87
2022/10/23 04:13:33;;;;;;;;;;;7.70;99.90;;;;;;5008770;28;19917;-87
2022/10/23 04:15:59;;;;;;;;;;;7.60;99.90;;;;;;5031765;28;19913;-87
2022/10/23 04:18:28;;;;;;;;;;;7.50;99.90;;;;;;5006894;28;20356;-88
2022/10/23 04:20:58;;;;;;;;;;;7.50;99.90;;;;;;5032775;28;19913;-87
2022/10/23 04:23:24;;;;;;;;;;;7.50;99.90;;;;;;4999802;28;19921;-89
2022/10/23 04:25:55;;;;;;;;;;;7.50;99.90;;;;;;5013984;28;20270;-88
2022/10/23 04:28:20;;;;;;;;;;;7.60;99.90;;;;;;5014942;28;19919;-89
2022/10/23 04:30:46;;;;;;;;;;;7.60;99.90;;;;;;4999812;28;19917;-88
2022/10/23 04:33:12;;;;;;;;;;;7.80;99.90;;;;;;5019028;28;19913;-87
2022/10/23 04:35:41;;;;;;;;;;;7.80;99.90;;;;;;5035664;28;19944;-90
2022/10/23 04:38:08;;;;;;;;;;;7.70;99.90;;;;;;5018444;28;19916;-88
2022/10/23 04:40:37;;;;;;;;;;;7.70;99.90;;;;;;5002829;28;19913;-87
2022/10/23 04:43:03;;;;;;;;;;;7.60;99.90;;;;;;5015559;28;20289;-88
2022/10/23 04:45:31;;;;;;;;;;;7.40;99.90;;;;;;5018719;28;20283;-88
2022/10/23 04:48:05;;;;;;;;;;;7.40;99.90;;;;;;5014894;28;19917;-89
2022/10/23 04:50:30;;;;;;;;;;;7.30;99.90;;;;;;5014949;28;20202;-88
2022/10/23 04:52:58;;;;;;;;;;;7.10;99.90;;;;;;5018794;28;19923;-89
2022/10/23 04:55:27;;;;;;;;;;;7.10;99.90;;;;;;5018794;28;19953;-88
2022/10/23 04:57:52;;;;;;;;;;;7.30;99.90;;;;;;5015805;28;19914;-88
2022/10/23 05:00:18;;;;;;;;;;;7.30;99.90;;;;;;5004975;28;19913;-87
2022/10/23 05:02:43;;;;;;;;;;;7.30;99.90;;;;;;5014382;28;20394;-87
2022/10/23 05:05:12;;;;;;;;;;;7.30;99.90;;;;;;5018202;28;19971;-88
2022/10/23 05:07:43;;;;;;;;;;;7.50;99.90;;;;;;5018545;28;20425;-87
2022/10/23 05:10:11;;;;;;;;;;;7.50;99.90;;;;;;5007418;28;20012;-87
2022/10/23 05:12:37;;;;;;;;;;;7.50;99.90;;;;;;5036011;28;19913;-90
2022/10/23 05:15:03;;;;;;;;;;;7.50;99.90;;;;;;5033250;28;19966;-88
2022/10/23 05:17:34;;;;;;;;;;;7.60;99.90;;;;;;4998710;28;20292;-88
2022/10/23 05:20:01;;;;;;;;;;;7.70;99.90;;;;;;5013843;28;20372;-88
2022/10/23 05:22:29;;;;;;;;;;;7.70;99.90;;;;;;5016022;28;19917;-90
2022/10/23 05:25:00;;;;;;;;;;;7.70;99.90;;;;;;5025013;28;19979;-87
2022/10/23 05:27:26;;;;;;;;;;;7.60;99.90;;;;;;5016226;28;19928;-89
2022/10/23 05:29:54;;;;;;;;;;;7.70;99.90;;;;;;5012447;28;19925;-89
2022/10/23 05:32:28;;;;;;;;;;;7.60;99.90;;;;;;5015389;28;19917;-87
2022/10/23 05:35:00;;;;;;;;;;;7.60;99.90;;;;;;5018386;28;19913;-88
2022/10/23 05:37:26;;;;;;;;;;;7.70;99.90;;;;;;5035638;28;20027;-88
2022/10/23 05:39:56;;;;;;;;;;;7.60;99.90;;;;;;5017550;28;20614;-89
2022/10/23 05:42:25;;;;;;;;;;;7.70;99.90;;;;;;5017272;28;19913;-88
2022/10/23 05:44:53;;;;;;;;;;;7.80;99.90;;;;;;5035999;28;20404;-88
2022/10/23 05:47:22;;;;;;;;;;;7.80;99.90;;;;;;5034542;28;19917;-87
2022/10/23 05:49:48;;;;;;;;;;;7.80;99.90;;;;;;5017576;28;19913;-87
2022/10/23 05:52:19;;;;;;;;;;;7.80;99.90;;;;;;5035905;28;20424;-88
2022/10/23 05:54:49;;;;;;;;;;;7.80;99.90;;;;;;5016194;28;19909;-87
2022/10/23 05:57:20;;;;;;;;;;;7.80;99.90;;;;;;5017731;28;19918;-88
2022/10/23 05:59:45;;;;;;;;;;;7.90;99.90;;;;;;5014766;28;20011;-88
2022/10/23 06:02:11;;;;;;;;;;;7.80;99.90;;;;;;5025348;28;20040;-87
2022/10/23 06:04:39;;;;;;;;;;;7.90;99.90;;;;;;5033854;28;19914;-89
2022/10/23 06:07:07;;;;;;;;;;;7.80;99.90;;;;;;5017424;28;20476;-89
2022/10/23 06:09:36;;;;;;;;;;;7.90;99.90;;;;;;5024646;28;19962;-87
2022/10/23 06:12:04;;;;;;;;;;;8.10;99.90;;;;;;5034157;28;20589;-87
2022/10/23 06:14:46;;;;;;;;;;;8.10;99.90;;;;;;5033948;28;20374;-88
2022/10/23 06:17:12;;;;;;;;;;;8.10;99.90;;;;;;5016758;28;19917;-88
2022/10/23 06:19:42;;;;;;;;;;;8.20;99.90;;;;;;5016116;28;19917;-88
2022/10/23 06:22:21;;;;;;;;;;;8.10;99.90;;;;;;5012623;28;19924;-87
2022/10/23 06:24:47;;;;;;;;;;;8.20;99.90;;;;;;5029019;28;20632;-86
2022/10/23 06:27:12;;;;;;;;;;;8.20;99.90;;;;;;5012669;28;19925;-88
2022/10/23 06:29:43;;;;;;;;;;;8.10;99.90;;;;;;5010757;28;19938;-86
2022/10/23 06:32:09;;;;;;;;;;;8.30;99.90;;;;;;5003804;28;19949;-91
2022/10/23 06:34:34;;;;;;;;;;;8.30;99.90;;;;;;5005214;28;19961;-86
2022/10/23 06:37:00;;;;;;;;;;;8.30;99.90;;;;;;5002968;28;19918;-87
2022/10/23 06:39:26;;;;;;;;;;;8.50;99.90;;;;;;5000819;28;19914;-85
2022/10/23 06:41:55;;;;;;;;;;;8.50;99.90;;;;;;5010018;28;19914;-86
2022/10/23 06:44:29;;;;;;;;;;;8.60;99.90;;;;;;5006039;28;19914;-87
2022/10/23 06:47:01;;;;;;;;;;;8.50;99.90;;;;;;5003503;28;19925;-86
2022/10/23 06:50:00;;;;;;;;;;;8.70;99.90;;;;;;5001469;28;20008;-86
2022/10/23 06:52:36;;;;;;;;;;;8.90;99.90;;;;;;5008465;28;19917;-84
2022/10/23 06:55:43;;;;;;;;;;;9.00;99.90;;;;;;5007976;28;19913;-86
2022/10/23 06:57:53;;;;;;;;;;;9.10;99.90;;;;;;5007660;28;19921;-86
2022/10/23 07:00:22;;;;;;;;;;;9.30;99.90;;;;;;5013622;28;19990;-87
2022/10/23 07:02:49;;;;;;;;;;;9.30;99.90;;;;;;5014849;28;19910;-86
2022/10/23 07:05:15;;;;;;;;;;;9.20;99.90;;;;;;5013581;28;19976;-86
2022/10/23 07:07:41;;;;;;;;;;;9.20;99.90;;;;;;5024997;28;19925;-85
2022/10/23 07:10:07;;;;;;;;;;;9.20;99.90;;;;;;5000688;28;19914;-84
2022/10/23 07:12:38;;;;;;;;;;;9.30;99.90;;;;;;5008968;28;19953;-86
2022/10/23 07:15:04;;;;;;;;;;;9.40;99.90;;;;;;5013180;28;19913;-85
2022/10/23 07:17:30;;;;;;;;;;;9.50;99.90;;;;;;5013068;28;19922;-87
2022/10/23 07:19:59;;;;;;;;;;;9.60;99.90;;;;;;5011996;28;20701;-85
2022/10/23 07:22:24;;;;;;;;;;;9.40;99.90;;;;;;5019412;28;20084;-85
2022/10/23 07:24:53;;;;;;;;;;;9.40;99.90;;;;;;5017551;28;20409;-86
2022/10/23 07:27:18;;;;;;;;;;;9.30;99.90;;;;;;5022622;28;19961;-87
2022/10/23 07:29:44;;;;;;;;;;;9.40;99.90;;;;;;5006743;28;19953;-86
2022/10/23 07:32:13;;;;;;;;;;;9.50;99.90;;;;;;5019489;28;19928;-87
2022/10/23 07:34:44;;;;;;;;;;;9.50;99.90;;;;;;5028961;28;19924;-86
2022/10/23 07:37:09;;;;;;;;;;;9.30;99.90;;;;;;5032577;28;19913;-87
2022/10/23 07:39:41;;;;;;;;;;;9.60;99.90;;;;;;5032165;28;19948;-86
2022/10/23 07:42:11;;;;;;;;;;;9.40;99.90;;;;;;5010241;28;19920;-87
2022/10/23 07:44:39;;;;;;;;;;;9.60;99.90;;;;;;5015819;28;20662;-85
2022/10/23 07:47:08;;;;;;;;;;;9.60;99.90;;;;;;5032099;28;19928;-86
2022/10/23 07:49:34;;;;;;;;;;;9.70;99.90;;;;;;5032029;28;19913;-85
2022/10/23 07:52:05;;;;;;;;;;;9.80;99.90;;;;;;5020414;28;19913;-86
2022/10/23 07:54:54;;;;;;;;;;;9.80;99.90;;;;;;5031232;28;19917;-87
2022/10/23 07:57:26;;;;;;;;;;;10.20;99.90;;;;;;5030941;28;19917;-86
2022/10/23 07:59:54;;;;;;;;;;;10.10;99.90;;;;;;5029920;28;19917;-86
2022/10/23 08:02:23;;;;;;;;;;;9.70;99.90;;;;;;5014166;28;19922;-87
2022/10/23 08:05:03;;;;;;;;;;;9.60;99.90;;;;;;5029035;28;19928;-87
2022/10/23 08:10:32;;;;;;;;;;;9.90;99.90;;;;;;5021800;28;19913;-84
2022/10/23 08:13:01;;;;;;;;;;;9.80;99.90;;;;;;5021476;28;19913;-86
2022/10/23 08:15:26;;;;;;;;;;;10.10;99.90;;;;;;5027891;28;20320;-87
2022/10/23 08:17:52;;;;;;;;;;;10.20;99.90;;;;;;5007911;28;19979;-85
2022/10/23 08:20:18;;;;;;;;;;;10.10;99.90;;;;;;5026287;28;19961;-87
2022/10/23 08:22:43;;;;;;;;;;;10.30;99.90;;;;;;5027378;28;19921;-87
2022/10/23 08:25:09;;;;;;;;;;;10.40;99.90;;;;;;5024590;28;20383;-86
2022/10/23 08:27:35;;;;;;;;;;;10.30;99.90;;;;;;5026599;28;20353;-89
2022/10/23 08:30:00;;;;;;;;;;;10.60;99.90;;;;;;5023264;28;19920;-86
2022/10/23 08:32:32;;;;;;;;;;;10.60;99.90;;;;;;5027648;28;19964;-86
2022/10/23 08:34:57;;;;;;;;;;;10.70;99.90;;;;;;5031771;28;20684;-86
2022/10/23 08:37:23;;;;;;;;;;;10.60;99.90;;;;;;5008955;28;19924;-88
2022/10/23 08:39:48;;;;;;;;;;;10.50;99.90;;;;;;5024657;28;19917;-88
2022/10/23 08:42:19;;;;;;;;;;;10.50;99.90;;;;;;5014958;28;19917;-87
2022/10/23 08:45:01;;;;;;;;;;;10.50;99.90;;;;;;5027109;28;19917;-86
2022/10/23 08:47:30;;;;;;;;;;;10.40;99.90;;;;;;5024821;28;19917;-84
2022/10/23 08:49:58;;;;;;;;;;;10.80;99.90;;;;;;5029429;28;19960;-86
2022/10/23 08:52:26;;;;;;;;;;;10.80;99.90;;;;;;5018620;28;19922;-89
2022/10/23 08:55:11;;;;;;;;;;;11.30;99.90;;;;;;5026022;28;20565;-87
2022/10/23 08:57:42;;;;;;;;;;;11.60;99.90;;;;;;5018286;28;20323;-86
2022/10/23 09:00:11;;;;;;;;;;;12.00;99.90;;;;;;5027338;28;19913;-86
2022/10/23 09:02:36;;;;;;;;;;;12.20;99.90;;;;;;5010037;28;19921;-88
2022/10/23 09:05:02;;;;;;;;;;;11.80;99.90;;;;;;5031002;28;19975;-88
2022/10/23 09:07:48;;;;;;;;;;;11.50;99.90;;;;;;5019164;28;19929;-88
2022/10/23 09:10:23;;;;;;;;;;;11.70;99.90;;;;;;5025449;28;19970;-87
2022/10/23 09:12:48;;;;;;;;;;;11.60;99.90;;;;;;5029838;28;19967;-87
2022/10/23 09:15:27;;;;;;;;;;;11.70;99.90;;;;;;5025014;28;19957;-86
2022/10/23 09:18:03;;;;;;;;;;;11.90;99.90;;;;;;5025572;28;20376;-86
2022/10/23 09:20:35;;;;;;;;;;;12.00;99.90;;;;;;5020992;28;19987;-85
2022/10/23 09:23:03;;;;;;;;;;;11.80;99.90;;;;;;5000976;28;19979;-87
2022/10/23 09:25:29;;;;;;;;;;;12.00;99.90;;;;;;5012985;28;20407;-84
2022/10/23 09:27:57;;;;;;;;;;;12.20;99.90;;;;;;5007462;28;19933;-88
2022/10/23 09:30:25;;;;;;;;;;;12.20;99.90;;;;;;5012602;28;20001;-86
2022/10/23 09:32:51;;;;;;;;;;;12.00;99.90;;;;;;5011888;28;19923;-86
2022/10/23 09:35:20;;;;;;;;;;;12.10;99.90;;;;;;5009007;28;19918;-87
2022/10/23 09:37:47;;;;;;;;;;;12.00;99.90;;;;;;5013640;28;20603;-87
2022/10/23 09:40:32;;;;;;;;;;;12.10;99.90;;;;;;4988202;28;19921;-84
2022/10/23 09:42:59;;;;;;;;;;;12.40;99.90;;;;;;5013557;28;19940;-86
2022/10/23 09:45:30;;;;;;;;;;;12.40;99.90;;;;;;5002897;28;20629;-86
2022/10/23 09:48:09;;;;;;;;;;;12.30;99.90;;;;;;5010672;28;20000;-86
2022/10/23 09:50:35;;;;;;;;;;;12.50;99.90;;;;;;5000403;28;20726;-88
2022/10/23 09:53:00;;;;;;;;;;;12.60;99.90;;;;;;5005970;28;19971;-88
2022/10/23 09:55:26;;;;;;;;;;;12.80;99.90;;;;;;5010303;28;19922;-85
2022/10/23 09:57:52;;;;;;;;;;;12.70;99.90;;;;;;5001237;28;19918;-84
2022/10/23 10:00:18;;;;;;;;;;;12.70;99.90;;;;;;5006638;28;19914;-87
2022/10/23 10:03:04;;;;;;;;;;;13.00;99.90;;;;;;5000535;28;19914;-86
2022/10/23 10:05:34;;;;;;;;;;;12.90;99.90;;;;;;5008661;28;19921;-86
2022/10/23 10:08:02;;;;;;;;;;;13.00;99.90;;;;;;4998648;28;19922;-86
2022/10/23 10:10:33;;;;;;;;;;;13.10;99.90;;;;;;5001937;28;20378;-86
2022/10/23 10:13:02;;;;;;;;;;;13.40;99.90;;;;;;4993339;28;19968;-85
2022/10/23 10:15:30;;;;;;;;;;;13.80;98.90;;;;;;5000528;28;19949;-86
2022/10/23 10:18:14;;;;;;;;;;;13.90;98.50;;;;;;5008493;28;19917;-83
2022/10/23 10:20:40;;;;;;;;;;;14.00;97.70;;;;;;5005245;28;19923;-84
2022/10/23 10:23:12;;;;;;;;;;;14.20;96.00;;;;;;5024590;28;20012;-84
2022/10/23 10:25:45;;;;;;;;;;;14.40;96.20;;;;;;5023179;28;20249;-83
2022/10/23 10:28:13;;;;;;;;;;;14.50;95.20;;;;;;5029178;28;19925;-83
2022/10/23 10:30:41;;;;;;;;;;;14.50;94.90;;;;;;5022628;28;19917;-84
2022/10/23 10:33:16;;;;;;;;;;;14.70;94.10;;;;;;5022141;28;19914;-84
2022/10/23 10:35:47;;;;;;;;;;;14.70;94.00;;;;;;5025894;28;19913;-83
2022/10/23 10:38:12;;;;;;;;;;;14.80;92.60;;;;;;5006471;28;20043;-83
2022/10/23 10:40:41;;;;;;;;;;;14.70;93.50;;;;;;5024557;28;20000;-84
2022/10/23 10:43:12;;;;;;;;;;;14.60;92.90;;;;;;5028311;28;19913;-82
2022/10/23 10:45:40;;;;;;;;;;;14.60;92.40;;;;;;5025327;28;20250;-83
2022/10/23 10:48:06;;;;;;;;;;;14.50;93.40;;;;;;5023926;28;20025;-83
2022/10/23 10:50:41;;;;;;;;;;;14.70;92.90;;;;;;5007452;28;20052;-83
2022/10/23 10:53:18;;;;;;;;;;;15.00;93.10;;;;;;5020818;28;20003;-84
2022/10/23 10:55:47;;;;;;;;;;;15.30;91.80;;;;;;5015854;28;19928;-83
2022/10/23 10:58:16;;;;;;;;;;;15.60;91.10;;;;;;5006828;28;19921;-82
2022/10/23 11:00:43;;;;;;;;;;;15.60;91.00;;;;;;5024213;28;20526;-83
2022/10/23 11:03:16;;;;;;;;;;;15.60;90.50;;;;;;5031839;28;19924;-83
2022/10/23 11:05:45;;;;;;;;;;;15.50;90.50;;;;;;5026194;28;19940;-83
2022/10/23 11:08:14;;;;;;;;;;;15.50;90.90;;;;;;5024579;28;20268;-82
2022/10/23 11:10:41;;;;;;;;;;;15.90;88.70;;;;;;5022903;28;19944;-83
2022/10/23 11:13:17;;;;;;;;;;;15.90;89.90;;;;;;5023320;28;19920;-82
2022/10/23 11:15:43;;;;;;;;;;;16.00;89.60;;;;;;5017186;28;20440;-82
2022/10/23 11:18:17;;;;;;;;;;;16.20;88.90;;;;;;5030789;28;19917;-82
2022/10/23 11:20:54;;;;;;;;;;;16.40;88.20;;;;;;5023352;28;19917;-82
2022/10/23 11:23:38;;;;;;;;;;;16.50;87.50;;;;;;5028949;28;20577;-82
2022/10/23 11:26:16;;;;;;;;;;;16.30;85.70;;;;;;5025863;28;19913;-82
2022/10/23 11:28:44;;;;;;;;;;;16.20;86.00;;;;;;5020651;28;19917;-82
2022/10/23 11:31:29;;;;;;;;;;;16.40;86.60;;;;;;5023378;28;19924;-82
2022/10/23 11:34:13;;;;;;;;;;;16.60;85.90;;;;;;5025559;28;19924;-82
2022/10/23 11:36:47;;;;;;;;;;;16.80;85.50;;;;;;5029249;28;20040;-82
2022/10/23 11:39:18;;;;;;;;;;;16.80;85.90;;;;;;5002296;28;20024;-82
2022/10/23 11:41:52;;;;;;;;;;;17.20;83.50;;;;;;5005645;28;19917;-82
2022/10/23 11:44:25;;;;;;;;;;;17.20;85.30;;;;;;5012174;28;19925;-82
2022/10/23 11:47:01;;;;;;;;;;;17.10;81.90;;;;;;5017387;28;20699;-81
2022/10/23 11:49:27;;;;;;;;;;;17.00;82.60;;;;;;5021939;28;20516;-82
2022/10/23 11:52:00;;;;;;;;;;;17.30;83.00;;;;;;4990913;28;19921;-82
2022/10/23 11:54:26;;;;;;;;;;;17.20;81.40;;;;;;5024236;28;20756;-82
2022/10/23 11:56:51;;;;;;;;;;;17.00;82.60;;;;;;4984821;28;19983;-82
2022/10/23 11:59:20;;;;;;;;;;;17.10;84.00;;;;;;5024100;28;19996;-82
2022/10/23 12:01:48;;;;;;;;;;;17.10;83.40;;;;;;5009637;28;19929;-81
2022/10/23 12:04:13;;;;;;;;;;;17.00;82.70;;;;;;5022331;28;19920;-82
2022/10/23 12:06:49;;;;;;;;;;;16.90;83.10;;;;;;5019863;28;19921;-82
2022/10/23 12:09:34;;;;;;;;;;;16.70;84.80;;;;;;5006889;28;19968;-82
2022/10/23 12:12:02;;;;;;;;;;;16.90;85.30;;;;;;5028542;28;19924;-81
2022/10/23 12:14:28;;;;;;;;;;;16.80;84.70;;;;;;5018030;28;20423;-82
2022/10/23 12:16:53;;;;;;;;;;;16.70;85.90;;;;;;5017562;28;19948;-82
2022/10/23 12:19:24;;;;;;;;;;;16.60;87.10;;;;;;5022384;28;19923;-81
2022/10/23 12:21:55;;;;;;;;;;;16.50;86.70;;;;;;5006785;28;19922;-81
2022/10/23 12:24:38;;;;;;;;;;;16.60;87.40;;;;;;5017809;28;19928;-82
2022/10/23 12:27:23;;;;;;;;;;;16.50;87.30;;;;;;5020355;28;20258;-82
2022/10/23 12:29:49;;;;;;;;;;;16.40;86.60;;;;;;5024364;28;19914;-82
2022/10/23 12:32:14;;;;;;;;;;;16.60;86.70;;;;;;5022564;28;19936;-81
2022/10/23 12:34:47;;;;;;;;;;;16.80;86.60;;;;;;5021021;28;19921;-82
2022/10/23 12:37:22;;;;;;;;;;;16.80;86.30;;;;;;5022901;28;19920;-81
2022/10/23 12:39:53;;;;;;;;;;;17.00;85.70;;;;;;5021713;28;19913;-81
2022/10/23 12:42:25;;;;;;;;;;;17.20;85.60;;;;;;5010693;28;20602;-81
2022/10/23 12:45:20;;;;;;;;;;;17.20;85.80;;;;;;5016057;28;20256;-82
2022/10/23 12:47:46;;;;;;;;;;;17.20;85.10;;;;;;5004763;28;20256;-81
2022/10/23 12:50:15;;;;;;;;;;;17.40;83.50;;;;;;5002090;28;19963;-81
2022/10/23 12:52:49;;;;;;;;;;;17.60;82.10;;;;;;5030189;28;19959;-82
2022/10/23 12:55:14;;;;;;;;;;;17.40;81.60;;;;;;5029687;28;19963;-81
2022/10/23 12:57:40;;;;;;;;;;;17.50;82.00;;;;;;5011078;28;19953;-82
2022/10/23 13:00:09;;;;;;;;;;;17.60;82.40;;;;;;4997159;28;19943;-81
2022/10/23 13:02:35;;;;;;;;;;;17.50;82.70;;;;;;5028999;28;19931;-81
2022/10/23 13:05:02;;;;;;;;;;;17.60;81.00;;;;;;5029653;28;19921;-81
2022/10/23 13:07:28;;;;;;;;;;;17.30;83.40;;;;;;5012085;28;19921;-81
2022/10/23 13:09:54;;;;;;;;;;;17.40;82.90;;;;;;5014666;28;19917;-81
2022/10/23 13:12:21;;;;;;;;;;;16.90;84.00;;;;;;5028526;28;20012;-81
2022/10/23 13:15:13;;;;;;;;;;;16.80;85.60;;;;;;5031891;28;20648;-81
2022/10/23 13:17:40;;;;;;;;;;;17.00;85.80;;;;;;5012569;28;19929;-81
2022/10/23 13:20:25;;;;;;;;;;;17.00;86.00;;;;;;5008627;28;19926;-81
2022/10/23 13:23:06;;;;;;;;;;;17.20;85.50;;;;;;5021515;28;19972;-81
2022/10/23 13:25:33;;;;;;;;;;;17.30;84.00;;;;;;5027841;28;20379;-81
2022/10/23 13:28:14;;;;;;;;;;;17.20;84.50;;;;;;5013913;28;19921;-81
2022/10/23 13:30:41;;;;;;;;;;;17.00;84.70;;;;;;5024147;28;20372;-81
2022/10/23 13:33:19;;;;;;;;;;;17.00;86.20;;;;;;5014137;28;19913;-81
2022/10/23 13:35:55;;;;;;;;;;;17.40;85.00;;;;;;5023208;28;19993;-82
2022/10/23 13:38:31;;;;;;;;;;;17.10;85.00;;;;;;5000966;28;19924;-81
2022/10/23 13:40:57;;;;;;;;;;;17.10;85.00;;;;;;5028669;28;19952;-81
2022/10/23 13:43:24;;;;;;;;;;;17.30;84.10;;;;;;5027747;28;19913;-81
2022/10/23 13:45:49;;;;;;;;;;;17.30;84.20;;;;;;5024754;28;19924;-82
2022/10/23 13:48:15;;;;;;;;;;;17.20;84.90;;;;;;5025070;28;19921;-82
2022/10/23 13:50:41;;;;;;;;;;;17.00;85.00;;;;;;5024732;28;20296;-81
2022/10/23 13:53:10;;;;;;;;;;;17.00;85.60;;;;;;5018901;28;19968;-81
2022/10/23 13:55:38;;;;;;;;;;;16.80;86.20;;;;;;5006007;28;19960;-81
2022/10/23 13:58:03;;;;;;;;;;;16.80;87.00;;;;;;5029315;28;20007;-81
2022/10/23 14:00:28;;;;;;;;;;;16.90;86.00;;;;;;5022250;28;20000;-82
2022/10/23 14:02:54;;;;;;;;;;;16.90;86.70;;;;;;5026093;28;20469;-82
2022/10/23 14:05:19;;;;;;;;;;;16.90;86.50;;;;;;5026694;28;19971;-81
2022/10/23 14:07:45;;;;;;;;;;;16.60;88.20;;;;;;5020814;28;20327;-82
2022/10/23 14:10:10;;;;;;;;;;;16.70;88.20;;;;;;5016733;28;19917;-82
2022/10/23 14:12:42;;;;;;;;;;;16.60;88.70;;;;;;4991622;28;19975;-82
2022/10/23 14:15:08;;;;;;;;;;;16.40;89.30;;;;;;5028740;28;19913;-82
2022/10/23 14:17:34;;;;;;;;;;;16.30;89.80;;;;;;5028468;28;19949;-82
2022/10/23 14:20:00;;;;;;;;;;;16.10;90.90;;;;;;5031187;28;20633;-82
2022/10/23 14:22:26;;;;;;;;;;;16.30;90.70;;;;;;5025346;28;19925;-82
2022/10/23 14:24:51;;;;;;;;;;;16.50;90.50;;;;;;5018618;28;19913;-82
2022/10/23 14:27:17;;;;;;;;;;;16.50;90.30;;;;;;5028701;28;19928;-82
2022/10/23 14:29:42;;;;;;;;;;;16.40;90.70;;;;;;5028610;28;20534;-82
2022/10/23 14:32:08;;;;;;;;;;;16.40;91.20;;;;;;5029210;28;19967;-82
2022/10/23 14:34:33;;;;;;;;;;;16.50;91.20;;;;;;5029663;28;19914;-82
2022/10/23 14:36:59;;;;;;;;;;;16.70;90.30;;;;;;5012255;28;19921;-82
2022/10/23 14:39:24;;;;;;;;;;;16.50;90.80;;;;;;5006487;28;20059;-82
2022/10/23 14:41:50;;;;;;;;;;;16.60;90.10;;;;;;5031361;28;19976;-82
2022/10/23 14:44:15;;;;;;;;;;;16.80;89.30;;;;;;5013841;28;19925;-82
2022/10/23 14:46:41;;;;;;;;;;;16.70;89.10;;;;;;5023212;28;19971;-82
2022/10/23 14:49:06;;;;;;;;;;;16.70;89.00;;;;;;5011743;28;19921;-82
2022/10/23 14:51:32;;;;;;;;;;;16.60;89.70;;;;;;5031302;28;19913;-82
2022/10/23 14:54:00;;;;;;;;;;;16.60;90.00;;;;;;5003767;28;19924;-82
2022/10/23 14:56:26;;;;;;;;;;;16.60;88.90;;;;;;5018050;28;19924;-82
2022/10/23 14:58:52;;;;;;;;;;;16.50;90.10;;;;;;5012629;28;19995;-82
2022/10/23 15:01:17;;;;;;;;;;;16.40;90.40;;;;;;5013441;28;20055;-82
2022/10/23 15:03:42;;;;;;;;;;;16.30;90.30;;;;;;5025487;28;20269;-82
2022/10/23 15:06:08;;;;;;;;;;;16.30;90.60;;;;;;5028772;28;19917;-82
2022/10/23 15:08:34;;;;;;;;;;;16.30;91.20;;;;;;5022741;28;20011;-82